sensor_id;sensor_type;location;lat;lon;timestamp;P1;durP1;ratioP1;P2;durP2;ratioP2
17614;SDS011;8926;49.720;6.576;2023-06-22T00:01:02;3.60;;;3.40;;
17614;SDS011;8926;49.720;6.576;2023-06-22T00:03:27;3.80;;;3.60;;
17614;SDS011;8926;49.720;6.576;2023-06-22T00:05:52;4.23;;;4.03;;
17614;SDS011;8926;49.720;6.576;2023-06-22T00:08:18;4.57;;;4.27;;
17614;SDS011;8926;49.720;6.576;2023-06-22T00:10:44;3.63;;;3.43;;
17614;SDS011;8926;49.720;6.576;2023-06-22T00:13:10;3.87;;;3.67;;
17614;SDS011;8926;49.720;6.576;2023-06-22T00:15:37;4.60;;;4.20;;
17614;SDS011;8926;49.720;6.576;2023-06-22T00:18:04;4.23;;;4.00;;
17614;SDS011;8926;49.720;6.576;2023-06-22T00:20:31;4.60;;;4.30;;
17614;SDS011;8926;49.720;6.576;2023-06-22T00:22:58;4.53;;;4.33;;
17614;SDS011;8926;49.720;6.576;2023-06-22T00:25:25;4.03;;;3.83;;
17614;SDS011;8926;49.720;6.576;2023-06-22T00:27:50;4.13;;;3.93;;
17614;SDS011;8926;49.720;6.576;2023-06-22T00:30:16;4.40;;;4.20;;
17614;SDS011;8926;49.720;6.576;2023-06-22T00:32:42;4.73;;;4.43;;
17614;SDS011;8926;49.720;6.576;2023-06-22T00:35:08;4.63;;;4.33;;
17614;SDS011;8926;49.720;6.576;2023-06-22T00:37:34;4.97;;;4.67;;
17614;SDS011;8926;49.720;6.576;2023-06-22T00:40:00;4.57;;;4.37;;
17614;SDS011;8926;49.720;6.576;2023-06-22T00:42:26;4.07;;;3.87;;
17614;SDS011;8926;49.720;6.576;2023-06-22T00:44:52;4.40;;;4.20;;
17614;SDS011;8926;49.720;6.576;2023-06-22T00:47:17;3.73;;;3.53;;
17614;SDS011;8926;49.720;6.576;2023-06-22T00:49:44;3.90;;;3.70;;
17614;SDS011;8926;49.720;6.576;2023-06-22T00:52:11;3.83;;;3.63;;
17614;SDS011;8926;49.720;6.576;2023-06-22T00:54:41;5.83;;;5.43;;
17614;SDS011;8926;49.720;6.576;2023-06-22T00:57:13;4.57;;;4.37;;
17614;SDS011;8926;49.720;6.576;2023-06-22T00:59:41;4.90;;;4.60;;
17614;SDS011;8926;49.720;6.576;2023-06-22T01:02:07;4.23;;;4.03;;
17614;SDS011;8926;49.720;6.576;2023-06-22T01:04:36;4.70;;;4.40;;
17614;SDS011;8926;49.720;6.576;2023-06-22T01:12:53;3.93;;;3.73;;
17614;SDS011;8926;49.720;6.576;2023-06-22T01:15:23;3.50;;;3.30;;
17614;SDS011;8926;49.720;6.576;2023-06-22T01:17:56;4.07;;;3.87;;
17614;SDS011;8926;49.720;6.576;2023-06-22T01:20:23;4.90;;;4.60;;
17614;SDS011;8926;49.720;6.576;2023-06-22T01:25:36;5.00;;;4.70;;
17614;SDS011;8926;49.720;6.576;2023-06-22T01:28:05;5.37;;;5.07;;
17614;SDS011;8926;49.720;6.576;2023-06-22T01:30:40;4.70;;;4.50;;
17614;SDS011;8926;49.720;6.576;2023-06-22T01:33:06;4.77;;;4.47;;
17614;SDS011;8926;49.720;6.576;2023-06-22T01:35:35;4.43;;;4.23;;
17614;SDS011;8926;49.720;6.576;2023-06-22T01:38:01;5.33;;;5.03;;
17614;SDS011;8926;49.720;6.576;2023-06-22T01:40:26;4.73;;;4.50;;
17614;SDS011;8926;49.720;6.576;2023-06-22T01:42:53;4.13;;;3.93;;
17614;SDS011;8926;49.720;6.576;2023-06-22T01:45:18;4.50;;;4.30;;
17614;SDS011;8926;49.720;6.576;2023-06-22T01:47:44;3.90;;;3.70;;
17614;SDS011;8926;49.720;6.576;2023-06-22T01:50:09;3.97;;;3.77;;
17614;SDS011;8926;49.720;6.576;2023-06-22T01:52:37;4.03;;;3.83;;
17614;SDS011;8926;49.720;6.576;2023-06-22T01:55:02;4.03;;;3.83;;
17614;SDS011;8926;49.720;6.576;2023-06-22T01:57:29;3.87;;;3.67;;
17614;SDS011;8926;49.720;6.576;2023-06-22T02:02:27;4.30;;;4.10;;
17614;SDS011;8926;49.720;6.576;2023-06-22T02:05:07;4.33;;;4.03;;
17614;SDS011;8926;49.720;6.576;2023-06-22T02:08:02;4.10;;;3.90;;
17614;SDS011;8926;49.720;6.576;2023-06-22T02:10:41;4.40;;;4.10;;
17614;SDS011;8926;49.720;6.576;2023-06-22T02:13:08;4.07;;;3.87;;
17614;SDS011;8926;49.720;6.576;2023-06-22T02:15:35;4.57;;;4.30;;
17614;SDS011;8926;49.720;6.576;2023-06-22T02:18:01;4.20;;;4.00;;
17614;SDS011;8926;49.720;6.576;2023-06-22T02:20:27;3.73;;;3.53;;
17614;SDS011;8926;49.720;6.576;2023-06-22T02:22:52;4.43;;;4.23;;
17614;SDS011;8926;49.720;6.576;2023-06-22T02:25:17;4.00;;;3.80;;
17614;SDS011;8926;49.720;6.576;2023-06-22T02:27:44;4.60;;;4.40;;
17614;SDS011;8926;49.720;6.576;2023-06-22T02:30:09;4.20;;;4.00;;
17614;SDS011;8926;49.720;6.576;2023-06-22T02:32:35;4.43;;;4.23;;
17614;SDS011;8926;49.720;6.576;2023-06-22T02:35:01;4.23;;;3.90;;
17614;SDS011;8926;49.720;6.576;2023-06-22T02:37:33;3.77;;;3.57;;
17614;SDS011;8926;49.720;6.576;2023-06-22T02:39:58;4.13;;;3.93;;
17614;SDS011;8926;49.720;6.576;2023-06-22T02:42:23;4.63;;;4.33;;
17614;SDS011;8926;49.720;6.576;2023-06-22T02:44:48;4.53;;;4.33;;
17614;SDS011;8926;49.720;6.576;2023-06-22T02:47:14;4.17;;;3.97;;
17614;SDS011;8926;49.720;6.576;2023-06-22T02:49:39;4.90;;;4.60;;
17614;SDS011;8926;49.720;6.576;2023-06-22T02:52:04;4.40;;;4.20;;
17614;SDS011;8926;49.720;6.576;2023-06-22T02:54:30;4.57;;;4.37;;
17614;SDS011;8926;49.720;6.576;2023-06-22T02:56:55;6.13;;;5.73;;
17614;SDS011;8926;49.720;6.576;2023-06-22T02:59:20;5.10;;;4.83;;
17614;SDS011;8926;49.720;6.576;2023-06-22T03:01:49;5.03;;;4.73;;
17614;SDS011;8926;49.720;6.576;2023-06-22T03:04:15;4.97;;;4.67;;
17614;SDS011;8926;49.720;6.576;2023-06-22T03:06:41;4.60;;;4.40;;
17614;SDS011;8926;49.720;6.576;2023-06-22T03:09:06;4.60;;;4.40;;
17614;SDS011;8926;49.720;6.576;2023-06-22T03:11:33;4.33;;;4.13;;
17614;SDS011;8926;49.720;6.576;2023-06-22T03:13:59;4.87;;;4.40;;
17614;SDS011;8926;49.720;6.576;2023-06-22T03:16:25;4.83;;;4.57;;
17614;SDS011;8926;49.720;6.576;2023-06-22T03:18:50;4.77;;;4.57;;
17614;SDS011;8926;49.720;6.576;2023-06-22T03:21:16;4.23;;;4.03;;
17614;SDS011;8926;49.720;6.576;2023-06-22T03:23:42;4.20;;;4.00;;
17614;SDS011;8926;49.720;6.576;2023-06-22T03:26:10;4.60;;;4.30;;
17614;SDS011;8926;49.720;6.576;2023-06-22T03:28:37;3.93;;;3.73;;
17614;SDS011;8926;49.720;6.576;2023-06-22T03:31:03;4.83;;;4.57;;
17614;SDS011;8926;49.720;6.576;2023-06-22T03:33:28;4.53;;;4.33;;
17614;SDS011;8926;49.720;6.576;2023-06-22T03:35:54;4.00;;;3.80;;
17614;SDS011;8926;49.720;6.576;2023-06-22T03:38:20;4.40;;;4.20;;
17614;SDS011;8926;49.720;6.576;2023-06-22T03:40:45;3.63;;;3.43;;
17614;SDS011;8926;49.720;6.576;2023-06-22T03:43:11;3.93;;;3.73;;
17614;SDS011;8926;49.720;6.576;2023-06-22T03:45:36;3.90;;;3.70;;
17614;SDS011;8926;49.720;6.576;2023-06-22T03:48:02;4.33;;;4.10;;
17614;SDS011;8926;49.720;6.576;2023-06-22T03:50:27;4.10;;;3.90;;
17614;SDS011;8926;49.720;6.576;2023-06-22T03:52:53;4.47;;;4.27;;
17614;SDS011;8926;49.720;6.576;2023-06-22T03:55:21;4.10;;;3.90;;
17614;SDS011;8926;49.720;6.576;2023-06-22T03:57:46;4.73;;;4.53;;
17614;SDS011;8926;49.720;6.576;2023-06-22T04:00:12;4.20;;;4.00;;
17614;SDS011;8926;49.720;6.576;2023-06-22T04:02:38;4.03;;;3.83;;
17614;SDS011;8926;49.720;6.576;2023-06-22T04:05:03;4.60;;;4.37;;
17614;SDS011;8926;49.720;6.576;2023-06-22T04:07:29;5.20;;;4.90;;
17614;SDS011;8926;49.720;6.576;2023-06-22T04:09:54;5.17;;;4.87;;
17614;SDS011;8926;49.720;6.576;2023-06-22T04:12:19;4.90;;;4.60;;
17614;SDS011;8926;49.720;6.576;2023-06-22T04:14:45;4.63;;;4.43;;
17614;SDS011;8926;49.720;6.576;2023-06-22T04:17:10;4.20;;;4.00;;
17614;SDS011;8926;49.720;6.576;2023-06-22T04:19:39;5.40;;;5.10;;
17614;SDS011;8926;49.720;6.576;2023-06-22T04:22:04;5.90;;;5.53;;
17614;SDS011;8926;49.720;6.576;2023-06-22T04:24:32;5.27;;;4.97;;
17614;SDS011;8926;49.720;6.576;2023-06-22T04:26:57;5.40;;;5.10;;
17614;SDS011;8926;49.720;6.576;2023-06-22T04:29:25;4.80;;;4.50;;
17614;SDS011;8926;49.720;6.576;2023-06-22T04:31:53;4.60;;;4.40;;
17614;SDS011;8926;49.720;6.576;2023-06-22T04:34:21;4.27;;;4.07;;
17614;SDS011;8926;49.720;6.576;2023-06-22T04:36:46;5.30;;;5.00;;
17614;SDS011;8926;49.720;6.576;2023-06-22T04:39:11;7.33;;;6.93;;
17614;SDS011;8926;49.720;6.576;2023-06-22T04:41:37;6.47;;;6.07;;
17614;SDS011;8926;49.720;6.576;2023-06-22T04:44:09;7.00;;;6.50;;
17614;SDS011;8926;49.720;6.576;2023-06-22T04:46:39;6.50;;;6.10;;
17614;SDS011;8926;49.720;6.576;2023-06-22T04:49:05;6.33;;;5.93;;
17614;SDS011;8926;49.720;6.576;2023-06-22T04:51:38;6.33;;;5.97;;
17614;SDS011;8926;49.720;6.576;2023-06-22T04:54:05;6.73;;;6.33;;
17614;SDS011;8926;49.720;6.576;2023-06-22T04:56:31;6.33;;;6.03;;
17614;SDS011;8926;49.720;6.576;2023-06-22T04:58:57;6.27;;;5.87;;
17614;SDS011;8926;49.720;6.576;2023-06-22T05:01:22;6.37;;;5.97;;
17614;SDS011;8926;49.720;6.576;2023-06-22T05:03:48;6.43;;;6.03;;
17614;SDS011;8926;49.720;6.576;2023-06-22T05:06:13;5.47;;;5.17;;
17614;SDS011;8926;49.720;6.576;2023-06-22T05:08:39;6.00;;;5.60;;
17614;SDS011;8926;49.720;6.576;2023-06-22T05:11:05;7.40;;;6.90;;
17614;SDS011;8926;49.720;6.576;2023-06-22T05:13:30;6.63;;;6.23;;
17614;SDS011;8926;49.720;6.576;2023-06-22T05:15:56;5.60;;;5.20;;
17614;SDS011;8926;49.720;6.576;2023-06-22T05:18:26;6.23;;;5.83;;
17614;SDS011;8926;49.720;6.576;2023-06-22T05:20:55;5.87;;;5.50;;
17614;SDS011;8926;49.720;6.576;2023-06-22T05:23:20;6.53;;;6.07;;
17614;SDS011;8926;49.720;6.576;2023-06-22T05:25:46;5.53;;;5.13;;
17614;SDS011;8926;49.720;6.576;2023-06-22T05:28:11;6.20;;;5.80;;
17614;SDS011;8926;49.720;6.576;2023-06-22T05:30:37;5.63;;;5.33;;
17614;SDS011;8926;49.720;6.576;2023-06-22T05:33:03;5.40;;;5.10;;
17614;SDS011;8926;49.720;6.576;2023-06-22T05:35:28;5.70;;;5.40;;
17614;SDS011;8926;49.720;6.576;2023-06-22T05:37:54;6.00;;;5.60;;
17614;SDS011;8926;49.720;6.576;2023-06-22T05:40:20;6.87;;;6.47;;
17614;SDS011;8926;49.720;6.576;2023-06-22T05:42:46;5.97;;;5.67;;
17614;SDS011;8926;49.720;6.576;2023-06-22T05:45:11;5.47;;;5.17;;
17614;SDS011;8926;49.720;6.576;2023-06-22T05:47:37;5.20;;;4.90;;
17614;SDS011;8926;49.720;6.576;2023-06-22T05:50:02;5.60;;;5.30;;
17614;SDS011;8926;49.720;6.576;2023-06-22T05:52:31;5.97;;;5.67;;
17614;SDS011;8926;49.720;6.576;2023-06-22T05:54:57;6.77;;;6.37;;
17614;SDS011;8926;49.720;6.576;2023-06-22T05:57:22;7.17;;;6.67;;
17614;SDS011;8926;49.720;6.576;2023-06-22T05:59:47;6.07;;;5.47;;
17614;SDS011;8926;49.720;6.576;2023-06-22T06:02:13;6.57;;;6.07;;
17614;SDS011;8926;49.720;6.576;2023-06-22T06:04:38;6.40;;;6.00;;
17614;SDS011;8926;49.720;6.576;2023-06-22T06:07:03;6.47;;;6.07;;
17614;SDS011;8926;49.720;6.576;2023-06-22T06:09:29;7.13;;;6.63;;
17614;SDS011;8926;49.720;6.576;2023-06-22T06:11:54;6.90;;;6.40;;
17614;SDS011;8926;49.720;6.576;2023-06-22T06:14:19;7.53;;;7.03;;
17614;SDS011;8926;49.720;6.576;2023-06-22T06:16:45;7.00;;;6.60;;
17614;SDS011;8926;49.720;6.576;2023-06-22T06:19:10;5.90;;;5.60;;
17614;SDS011;8926;49.720;6.576;2023-06-22T06:21:36;6.80;;;6.40;;
17614;SDS011;8926;49.720;6.576;2023-06-22T06:24:01;6.10;;;5.80;;
17614;SDS011;8926;49.720;6.576;2023-06-22T06:26:26;5.80;;;5.50;;
17614;SDS011;8926;49.720;6.576;2023-06-22T06:28:59;6.53;;;6.13;;
17614;SDS011;8926;49.720;6.576;2023-06-22T06:31:25;6.53;;;6.03;;
17614;SDS011;8926;49.720;6.576;2023-06-22T06:33:53;6.90;;;6.43;;
17614;SDS011;8926;49.720;6.576;2023-06-22T06:36:19;5.77;;;5.47;;
17614;SDS011;8926;49.720;6.576;2023-06-22T06:38:44;6.03;;;5.73;;
17614;SDS011;8926;49.720;6.576;2023-06-22T06:41:12;6.60;;;6.10;;
17614;SDS011;8926;49.720;6.576;2023-06-22T06:43:37;6.10;;;5.70;;
17614;SDS011;8926;49.720;6.576;2023-06-22T06:46:02;6.93;;;6.53;;
17614;SDS011;8926;49.720;6.576;2023-06-22T06:48:28;7.30;;;6.90;;
17614;SDS011;8926;49.720;6.576;2023-06-22T06:50:53;5.67;;;5.37;;
17614;SDS011;8926;49.720;6.576;2023-06-22T06:53:18;6.80;;;6.30;;
17614;SDS011;8926;49.720;6.576;2023-06-22T06:55:44;6.43;;;6.03;;
17614;SDS011;8926;49.720;6.576;2023-06-22T06:58:10;6.20;;;5.87;;
17614;SDS011;8926;49.720;6.576;2023-06-22T07:00:38;5.70;;;5.40;;
17614;SDS011;8926;49.720;6.576;2023-06-22T07:03:04;6.13;;;5.80;;
17614;SDS011;8926;49.720;6.576;2023-06-22T07:05:29;7.30;;;6.90;;
17614;SDS011;8926;49.720;6.576;2023-06-22T07:07:55;7.17;;;6.63;;
17614;SDS011;8926;49.720;6.576;2023-06-22T07:10:20;6.43;;;6.03;;
17614;SDS011;8926;49.720;6.576;2023-06-22T07:12:46;6.30;;;5.90;;
17614;SDS011;8926;49.720;6.576;2023-06-22T07:15:11;6.03;;;5.73;;
17614;SDS011;8926;49.720;6.576;2023-06-22T07:17:37;7.33;;;6.63;;
17614;SDS011;8926;49.720;6.576;2023-06-22T07:20:07;7.87;;;7.37;;
17614;SDS011;8926;49.720;6.576;2023-06-22T07:22:37;6.50;;;6.10;;
17614;SDS011;8926;49.720;6.576;2023-06-22T07:25:03;7.33;;;6.83;;
17614;SDS011;8926;49.720;6.576;2023-06-22T07:27:38;6.10;;;5.70;;
17614;SDS011;8926;49.720;6.576;2023-06-22T07:30:05;6.20;;;5.80;;
17614;SDS011;8926;49.720;6.576;2023-06-22T07:32:30;5.37;;;5.03;;
17614;SDS011;8926;49.720;6.576;2023-06-22T07:34:56;6.83;;;6.33;;
17614;SDS011;8926;49.720;6.576;2023-06-22T07:37:21;6.40;;;6.00;;
17614;SDS011;8926;49.720;6.576;2023-06-22T07:39:46;6.77;;;6.27;;
17614;SDS011;8926;49.720;6.576;2023-06-22T07:42:11;6.10;;;5.70;;
17614;SDS011;8926;49.720;6.576;2023-06-22T07:44:37;5.87;;;5.57;;
17614;SDS011;8926;49.720;6.576;2023-06-22T07:47:02;5.87;;;5.47;;
17614;SDS011;8926;49.720;6.576;2023-06-22T07:49:28;6.53;;;6.13;;
17614;SDS011;8926;49.720;6.576;2023-06-22T07:51:54;6.53;;;6.13;;
17614;SDS011;8926;49.720;6.576;2023-06-22T07:54:19;6.10;;;5.70;;
17614;SDS011;8926;49.720;6.576;2023-06-22T07:56:45;5.87;;;5.57;;
17614;SDS011;8926;49.720;6.576;2023-06-22T07:59:11;6.37;;;6.03;;
17614;SDS011;8926;49.720;6.576;2023-06-22T08:01:36;6.00;;;5.60;;
17614;SDS011;8926;49.720;6.576;2023-06-22T08:04:02;6.87;;;6.37;;
17614;SDS011;8926;49.720;6.576;2023-06-22T08:06:29;5.83;;;5.53;;
17614;SDS011;8926;49.720;6.576;2023-06-22T08:08:55;6.70;;;6.30;;
17614;SDS011;8926;49.720;6.576;2023-06-22T08:11:22;6.20;;;5.80;;
17614;SDS011;8926;49.720;6.576;2023-06-22T08:13:48;6.50;;;6.10;;
17614;SDS011;8926;49.720;6.576;2023-06-22T08:16:15;5.90;;;5.50;;
17614;SDS011;8926;49.720;6.576;2023-06-22T08:18:40;5.40;;;5.00;;
17614;SDS011;8926;49.720;6.576;2023-06-22T08:21:05;4.93;;;4.63;;
17614;SDS011;8926;49.720;6.576;2023-06-22T08:23:31;5.40;;;5.10;;
17614;SDS011;8926;49.720;6.576;2023-06-22T08:25:56;6.23;;;5.83;;
17614;SDS011;8926;49.720;6.576;2023-06-22T08:28:21;5.23;;;4.93;;
17614;SDS011;8926;49.720;6.576;2023-06-22T08:30:46;6.27;;;5.87;;
17614;SDS011;8926;49.720;6.576;2023-06-22T08:33:12;5.60;;;5.30;;
17614;SDS011;8926;49.720;6.576;2023-06-22T08:35:37;5.40;;;5.10;;
17614;SDS011;8926;49.720;6.576;2023-06-22T08:38:03;5.37;;;4.87;;
17614;SDS011;8926;49.720;6.576;2023-06-22T08:40:28;5.77;;;5.37;;
17614;SDS011;8926;49.720;6.576;2023-06-22T08:42:54;5.80;;;5.30;;
17614;SDS011;8926;49.720;6.576;2023-06-22T08:45:19;4.37;;;4.07;;
17614;SDS011;8926;49.720;6.576;2023-06-22T08:47:45;4.60;;;4.30;;
17614;SDS011;8926;49.720;6.576;2023-06-22T08:50:11;5.10;;;4.80;;
17614;SDS011;8926;49.720;6.576;2023-06-22T08:52:37;6.13;;;5.63;;
17614;SDS011;8926;49.720;6.576;2023-06-22T08:55:06;5.53;;;5.23;;
17614;SDS011;8926;49.720;6.576;2023-06-22T08:57:32;4.90;;;4.70;;
17614;SDS011;8926;49.720;6.576;2023-06-22T08:59:57;4.50;;;4.20;;
17614;SDS011;8926;49.720;6.576;2023-06-22T09:02:23;5.70;;;5.40;;
17614;SDS011;8926;49.720;6.576;2023-06-22T09:04:49;5.67;;;5.37;;
17614;SDS011;8926;49.720;6.576;2023-06-22T09:07:21;5.10;;;4.90;;
17614;SDS011;8926;49.720;6.576;2023-06-22T09:09:48;5.50;;;5.20;;
17614;SDS011;8926;49.720;6.576;2023-06-22T09:12:14;5.20;;;4.80;;
17614;SDS011;8926;49.720;6.576;2023-06-22T09:14:39;5.57;;;5.17;;
17614;SDS011;8926;49.720;6.576;2023-06-22T09:17:05;4.67;;;4.40;;
17614;SDS011;8926;49.720;6.576;2023-06-22T09:19:30;6.13;;;5.70;;
17614;SDS011;8926;49.720;6.576;2023-06-22T09:21:55;5.33;;;5.03;;
17614;SDS011;8926;49.720;6.576;2023-06-22T09:24:21;5.93;;;5.37;;
17614;SDS011;8926;49.720;6.576;2023-06-22T09:26:46;5.13;;;4.83;;
17614;SDS011;8926;49.720;6.576;2023-06-22T09:29:11;5.87;;;5.17;;
17614;SDS011;8926;49.720;6.576;2023-06-22T09:31:36;5.53;;;5.23;;
17614;SDS011;8926;49.720;6.576;2023-06-22T09:34:02;5.73;;;5.43;;
17614;SDS011;8926;49.720;6.576;2023-06-22T09:36:27;6.70;;;6.30;;
17614;SDS011;8926;49.720;6.576;2023-06-22T09:38:52;5.77;;;5.37;;
17614;SDS011;8926;49.720;6.576;2023-06-22T09:41:20;4.30;;;4.10;;
17614;SDS011;8926;49.720;6.576;2023-06-22T09:43:45;4.13;;;3.93;;
17614;SDS011;8926;49.720;6.576;2023-06-22T09:46:10;5.27;;;4.97;;
17614;SDS011;8926;49.720;6.576;2023-06-22T09:48:36;4.37;;;4.10;;
17614;SDS011;8926;49.720;6.576;2023-06-22T09:51:01;4.47;;;4.27;;
17614;SDS011;8926;49.720;6.576;2023-06-22T09:53:26;4.70;;;4.40;;
17614;SDS011;8926;49.720;6.576;2023-06-22T09:55:52;4.73;;;4.43;;
17614;SDS011;8926;49.720;6.576;2023-06-22T09:58:17;4.03;;;3.83;;
17614;SDS011;8926;49.720;6.576;2023-06-22T10:00:42;4.97;;;4.50;;
17614;SDS011;8926;49.720;6.576;2023-06-22T10:03:07;4.90;;;4.60;;
17614;SDS011;8926;49.720;6.576;2023-06-22T10:05:33;4.93;;;4.63;;
17614;SDS011;8926;49.720;6.576;2023-06-22T10:07:58;4.83;;;4.53;;
17614;SDS011;8926;49.720;6.576;2023-06-22T10:10:24;3.73;;;3.53;;
17614;SDS011;8926;49.720;6.576;2023-06-22T10:12:54;4.50;;;4.30;;
17614;SDS011;8926;49.720;6.576;2023-06-22T10:15:21;6.40;;;6.00;;
17614;SDS011;8926;49.720;6.576;2023-06-22T10:17:46;5.90;;;5.60;;
17614;SDS011;8926;49.720;6.576;2023-06-22T10:20:12;5.87;;;5.47;;
17614;SDS011;8926;49.720;6.576;2023-06-22T10:22:38;6.80;;;6.37;;
17614;SDS011;8926;49.720;6.576;2023-06-22T10:25:05;6.60;;;6.20;;
17614;SDS011;8926;49.720;6.576;2023-06-22T10:27:31;5.50;;;5.20;;
17614;SDS011;8926;49.720;6.576;2023-06-22T10:29:56;5.73;;;5.43;;
17614;SDS011;8926;49.720;6.576;2023-06-22T10:32:22;5.17;;;4.87;;
17614;SDS011;8926;49.720;6.576;2023-06-22T10:34:47;5.27;;;4.97;;
17614;SDS011;8926;49.720;6.576;2023-06-22T10:37:12;6.70;;;6.17;;
17614;SDS011;8926;49.720;6.576;2023-06-22T10:39:38;5.00;;;4.70;;
17614;SDS011;8926;49.720;6.576;2023-06-22T10:42:03;5.47;;;5.17;;
17614;SDS011;8926;49.720;6.576;2023-06-22T10:44:28;4.93;;;4.63;;
17614;SDS011;8926;49.720;6.576;2023-06-22T10:46:54;5.03;;;4.73;;
17614;SDS011;8926;49.720;6.576;2023-06-22T10:49:19;5.13;;;4.83;;
17614;SDS011;8926;49.720;6.576;2023-06-22T10:51:44;5.60;;;5.30;;
17614;SDS011;8926;49.720;6.576;2023-06-22T10:54:09;4.80;;;4.53;;
17614;SDS011;8926;49.720;6.576;2023-06-22T10:56:35;4.70;;;4.50;;
17614;SDS011;8926;49.720;6.576;2023-06-22T10:59:00;5.03;;;4.73;;
17614;SDS011;8926;49.720;6.576;2023-06-22T11:01:26;5.83;;;5.53;;
17614;SDS011;8926;49.720;6.576;2023-06-22T11:03:53;6.70;;;6.20;;
17614;SDS011;8926;49.720;6.576;2023-06-22T11:06:18;5.80;;;5.50;;
17614;SDS011;8926;49.720;6.576;2023-06-22T11:08:44;5.13;;;4.83;;
17614;SDS011;8926;49.720;6.576;2023-06-22T11:11:10;6.03;;;5.73;;
17614;SDS011;8926;49.720;6.576;2023-06-22T11:13:35;5.40;;;5.10;;
17614;SDS011;8926;49.720;6.576;2023-06-22T11:16:00;5.90;;;5.60;;
17614;SDS011;8926;49.720;6.576;2023-06-22T11:18:26;6.90;;;6.50;;
17614;SDS011;8926;49.720;6.576;2023-06-22T11:20:51;6.23;;;5.93;;
17614;SDS011;8926;49.720;6.576;2023-06-22T11:23:16;6.00;;;5.60;;
17614;SDS011;8926;49.720;6.576;2023-06-22T11:25:42;6.17;;;5.77;;
17614;SDS011;8926;49.720;6.576;2023-06-22T11:28:07;6.27;;;5.63;;
17614;SDS011;8926;49.720;6.576;2023-06-22T11:30:33;4.93;;;4.70;;
17614;SDS011;8926;49.720;6.576;2023-06-22T11:32:59;6.20;;;5.80;;
17614;SDS011;8926;49.720;6.576;2023-06-22T11:35:24;5.57;;;5.27;;
17614;SDS011;8926;49.720;6.576;2023-06-22T11:37:50;6.80;;;6.40;;
17614;SDS011;8926;49.720;6.576;2023-06-22T11:40:15;6.17;;;5.80;;
17614;SDS011;8926;49.720;6.576;2023-06-22T11:42:42;6.90;;;6.40;;
17614;SDS011;8926;49.720;6.576;2023-06-22T11:45:07;6.30;;;5.90;;
17614;SDS011;8926;49.720;6.576;2023-06-22T11:47:33;5.87;;;5.53;;
17614;SDS011;8926;49.720;6.576;2023-06-22T11:49:58;5.40;;;5.10;;
17614;SDS011;8926;49.720;6.576;2023-06-22T11:52:23;5.60;;;5.30;;
17614;SDS011;8926;49.720;6.576;2023-06-22T11:54:49;5.43;;;4.90;;
17614;SDS011;8926;49.720;6.576;2023-06-22T11:57:14;5.37;;;4.97;;
17614;SDS011;8926;49.720;6.576;2023-06-22T11:59:39;5.87;;;5.37;;
17614;SDS011;8926;49.720;6.576;2023-06-22T12:02:05;5.80;;;5.40;;
17614;SDS011;8926;49.720;6.576;2023-06-22T12:04:32;5.97;;;5.63;;
17614;SDS011;8926;49.720;6.576;2023-06-22T12:06:58;6.00;;;5.50;;
17614;SDS011;8926;49.720;6.576;2023-06-22T12:09:23;4.57;;;4.37;;
17614;SDS011;8926;49.720;6.576;2023-06-22T12:11:48;4.63;;;4.40;;
17614;SDS011;8926;49.720;6.576;2023-06-22T12:14:14;4.90;;;4.70;;
17614;SDS011;8926;49.720;6.576;2023-06-22T12:16:39;4.90;;;4.60;;
17614;SDS011;8926;49.720;6.576;2023-06-22T12:19:04;3.93;;;3.73;;
17614;SDS011;8926;49.720;6.576;2023-06-22T12:21:30;4.47;;;4.17;;
17614;SDS011;8926;49.720;6.576;2023-06-22T12:23:55;4.17;;;3.97;;
17614;SDS011;8926;49.720;6.576;2023-06-22T12:26:21;4.57;;;4.37;;
17614;SDS011;8926;49.720;6.576;2023-06-22T12:28:47;4.80;;;4.50;;
17614;SDS011;8926;49.720;6.576;2023-06-22T12:31:12;4.00;;;3.80;;
17614;SDS011;8926;49.720;6.576;2023-06-22T12:33:39;3.83;;;3.63;;
17614;SDS011;8926;49.720;6.576;2023-06-22T12:36:04;3.90;;;3.70;;
17614;SDS011;8926;49.720;6.576;2023-06-22T12:38:30;3.40;;;3.20;;
17614;SDS011;8926;49.720;6.576;2023-06-22T12:40:55;3.13;;;2.93;;
17614;SDS011;8926;49.720;6.576;2023-06-22T12:43:21;3.47;;;3.27;;
17614;SDS011;8926;49.720;6.576;2023-06-22T12:45:46;3.27;;;3.10;;
17614;SDS011;8926;49.720;6.576;2023-06-22T12:48:11;2.90;;;2.80;;
17614;SDS011;8926;49.720;6.576;2023-06-22T12:50:37;3.00;;;2.90;;
17614;SDS011;8926;49.720;6.576;2023-06-22T12:53:03;5.30;;;4.90;;
17614;SDS011;8926;49.720;6.576;2023-06-22T12:55:29;5.13;;;4.83;;
17614;SDS011;8926;49.720;6.576;2023-06-22T12:57:54;4.50;;;4.20;;
17614;SDS011;8926;49.720;6.576;2023-06-22T13:00:20;5.90;;;5.50;;
17614;SDS011;8926;49.720;6.576;2023-06-22T13:02:46;5.83;;;5.43;;
17614;SDS011;8926;49.720;6.576;2023-06-22T13:05:12;5.17;;;4.77;;
17614;SDS011;8926;49.720;6.576;2023-06-22T13:07:37;3.80;;;3.60;;
17614;SDS011;8926;49.720;6.576;2023-06-22T13:10:02;3.90;;;3.60;;
17614;SDS011;8926;49.720;6.576;2023-06-22T13:12:28;4.37;;;4.13;;
17614;SDS011;8926;49.720;6.576;2023-06-22T13:14:53;6.70;;;6.27;;
17614;SDS011;8926;49.720;6.576;2023-06-22T13:17:19;5.97;;;5.57;;
17614;SDS011;8926;49.720;6.576;2023-06-22T13:19:44;5.20;;;4.90;;
17614;SDS011;8926;49.720;6.576;2023-06-22T13:24:57;9.87;;;8.97;;
17614;SDS011;8926;49.720;6.576;2023-06-22T13:27:24;5.23;;;4.33;;
17614;SDS011;8926;49.720;6.576;2023-06-22T13:29:49;6.57;;;4.03;;
17614;SDS011;8926;49.720;6.576;2023-06-22T13:32:15;5.33;;;3.80;;
17614;SDS011;8926;49.720;6.576;2023-06-22T13:34:40;5.37;;;3.40;;
17614;SDS011;8926;49.720;6.576;2023-06-22T13:37:05;3.23;;;2.93;;
17614;SDS011;8926;49.720;6.576;2023-06-22T13:39:31;5.37;;;3.23;;
17614;SDS011;8926;49.720;6.576;2023-06-22T13:41:57;4.03;;;3.30;;
17614;SDS011;8926;49.720;6.576;2023-06-22T13:44:23;3.33;;;2.97;;
17614;SDS011;8926;49.720;6.576;2023-06-22T13:46:48;3.03;;;2.73;;
17614;SDS011;8926;49.720;6.576;2023-06-22T13:49:13;4.40;;;3.00;;
17614;SDS011;8926;49.720;6.576;2023-06-22T13:51:39;2.83;;;2.57;;
17614;SDS011;8926;49.720;6.576;2023-06-22T13:54:04;2.37;;;2.17;;
17614;SDS011;8926;49.720;6.576;2023-06-22T13:56:29;2.40;;;2.20;;
17614;SDS011;8926;49.720;6.576;2023-06-22T13:58:55;2.57;;;2.37;;
17614;SDS011;8926;49.720;6.576;2023-06-22T14:01:20;2.40;;;2.20;;
17614;SDS011;8926;49.720;6.576;2023-06-22T14:03:46;2.07;;;1.83;;
17614;SDS011;8926;49.720;6.576;2023-06-22T14:06:13;2.00;;;1.90;;
17614;SDS011;8926;49.720;6.576;2023-06-22T14:08:38;2.63;;;2.43;;
17614;SDS011;8926;49.720;6.576;2023-06-22T14:11:03;4.20;;;2.60;;
17614;SDS011;8926;49.720;6.576;2023-06-22T14:13:29;3.43;;;2.07;;
17614;SDS011;8926;49.720;6.576;2023-06-22T14:15:54;2.13;;;2.00;;
17614;SDS011;8926;49.720;6.576;2023-06-22T14:18:20;2.70;;;2.10;;
17614;SDS011;8926;49.720;6.576;2023-06-22T14:20:47;2.57;;;2.37;;
17614;SDS011;8926;49.720;6.576;2023-06-22T14:23:12;4.40;;;2.90;;
17614;SDS011;8926;49.720;6.576;2023-06-22T14:25:38;4.20;;;3.20;;
17614;SDS011;8926;49.720;6.576;2023-06-22T14:28:04;2.70;;;2.50;;
17614;SDS011;8926;49.720;6.576;2023-06-22T14:30:29;4.50;;;2.63;;
17614;SDS011;8926;49.720;6.576;2023-06-22T14:32:54;3.83;;;3.50;;
17614;SDS011;8926;49.720;6.576;2023-06-22T14:35:20;2.80;;;2.60;;
17614;SDS011;8926;49.720;6.576;2023-06-22T14:37:46;2.93;;;2.43;;
17614;SDS011;8926;49.720;6.576;2023-06-22T14:40:11;4.13;;;3.43;;
17614;SDS011;8926;49.720;6.576;2023-06-22T14:42:37;3.17;;;2.80;;
17614;SDS011;8926;49.720;6.576;2023-06-22T14:45:02;3.37;;;2.90;;
17614;SDS011;8926;49.720;6.576;2023-06-22T14:47:28;2.60;;;2.40;;
17614;SDS011;8926;49.720;6.576;2023-06-22T14:49:53;2.57;;;2.30;;
17614;SDS011;8926;49.720;6.576;2023-06-22T14:52:19;2.17;;;2.07;;
17614;SDS011;8926;49.720;6.576;2023-06-22T14:54:45;2.30;;;2.10;;
17614;SDS011;8926;49.720;6.576;2023-06-22T14:57:10;3.37;;;2.37;;
17614;SDS011;8926;49.720;6.576;2023-06-22T14:59:35;2.00;;;1.90;;
17614;SDS011;8926;49.720;6.576;2023-06-22T15:02:01;2.03;;;1.93;;
17614;SDS011;8926;49.720;6.576;2023-06-22T15:04:26;2.50;;;2.00;;
17614;SDS011;8926;49.720;6.576;2023-06-22T15:06:56;2.53;;;1.90;;